createdAt,value
2018-04-18T00:01:35.536Z,5.27
2018-04-18T00:04:03.654Z,5.83
2018-04-18T00:06:31.785Z,5.40
2018-04-18T00:09:01.429Z,5.53
2018-04-18T00:11:29.602Z,5.33
2018-04-18T00:13:57.717Z,5.33
2018-04-18T00:16:25.829Z,5.47
2018-04-18T00:18:54.734Z,5.87
2018-04-18T00:21:23.636Z,5.80
2018-04-18T00:23:51.812Z,5.50
2018-04-18T00:26:19.952Z,5.30
2018-04-18T00:28:48.076Z,5.30
2018-04-18T00:31:16.225Z,4.90
2018-04-18T00:33:44.331Z,5.37
2018-04-18T00:36:12.470Z,5.63
2018-04-18T00:38:40.597Z,5.30
2018-04-18T00:41:08.814Z,5.67
2018-04-18T00:43:36.967Z,5.30
2018-04-18T00:46:05.096Z,5.87
2018-04-18T00:48:33.212Z,5.60
2018-04-18T00:51:02.098Z,5.60
2018-04-18T00:53:30.222Z,5.47
2018-04-18T00:55:58.353Z,5.47
2018-04-18T00:58:27.247Z,5.97
2018-04-18T01:00:56.122Z,5.93
2018-04-18T01:03:24.246Z,6.00
2018-04-18T01:05:52.368Z,5.60
2018-04-18T01:08:20.480Z,5.60
2018-04-18T01:10:48.606Z,5.90
2018-04-18T01:13:18.340Z,6.03
2018-04-18T01:15:47.238Z,5.53
2018-04-18T01:18:15.404Z,5.87
2018-04-18T01:20:44.304Z,5.70
2018-04-18T01:23:12.510Z,5.93
2018-04-18T01:25:40.626Z,5.97
2018-04-18T01:28:08.761Z,6.13
2018-04-18T01:30:36.876Z,6.00
2018-04-18T01:33:05.800Z,6.13
2018-04-18T01:35:34.658Z,6.10
2018-04-18T01:38:03.568Z,6.30
2018-04-18T01:40:31.721Z,6.18
2018-04-18T01:43:00.635Z,6.10
2018-04-18T01:45:28.769Z,6.05
2018-04-18T01:47:58.411Z,6.53
2018-04-18T01:50:26.547Z,6.32
2018-04-18T01:52:56.188Z,5.90
2018-04-18T01:55:24.311Z,5.87
2018-04-18T01:57:52.429Z,6.30
2018-04-18T02:00:34.508Z,6.07
2018-04-18T02:03:02.633Z,6.75
2018-04-18T02:05:30.745Z,7.68
2018-04-18T02:07:58.964Z,6.97
2018-04-18T02:10:27.116Z,6.87
2018-04-18T02:12:56.017Z,6.57
2018-04-18T02:15:24.130Z,6.23
2018-04-18T02:17:52.258Z,6.80
2018-04-18T02:20:20.388Z,6.97
2018-04-18T02:22:48.521Z,7.05
2018-04-18T02:25:16.679Z,7.10
2018-04-18T02:27:45.573Z,7.40
2018-04-18T02:30:13.697Z,6.97
2018-04-18T02:32:41.845Z,7.05
2018-04-18T02:35:09.996Z,6.60
2018-04-18T02:37:38.150Z,7.15
2018-04-18T02:40:07.084Z,6.53
2018-04-18T02:42:35.234Z,6.68
2018-04-18T02:45:03.386Z,6.53
2018-04-18T02:47:32.267Z,7.12
2018-04-18T02:50:01.147Z,7.07
2018-04-18T02:52:29.281Z,6.90
2018-04-18T02:54:57.413Z,6.72
2018-04-18T02:57:26.295Z,7.55
2018-04-18T02:59:55.182Z,6.45
2018-04-18T03:02:24.099Z,6.60
2018-04-18T03:04:52.986Z,6.68
2018-04-18T03:07:21.110Z,6.87
2018-04-18T03:09:49.341Z,6.87
2018-04-18T03:12:17.484Z,7.03
2018-04-18T03:14:46.384Z,7.15
2018-04-18T03:17:15.265Z,7.03
2018-04-18T03:19:44.154Z,7.18
2018-04-18T03:22:13.184Z,6.65
2018-04-18T03:24:41.346Z,7.75
2018-04-18T03:27:09.472Z,7.57
2018-04-18T03:29:37.585Z,7.20
2018-04-18T03:32:06.485Z,6.47
2018-04-18T03:34:34.615Z,6.50
2018-04-18T03:37:02.736Z,7.60
2018-04-18T03:39:30.913Z,7.60
2018-04-18T03:41:59.039Z,7.60
2018-04-18T03:44:27.254Z,7.78
2018-04-18T03:46:55.383Z,7.10
2018-04-18T03:49:23.499Z,7.35
2018-04-18T03:51:51.671Z,7.60
2018-04-18T03:54:19.847Z,7.10
2018-04-18T03:56:47.978Z,6.80
2018-04-18T03:59:16.182Z,7.12
2018-04-18T04:01:44.318Z,7.60
2018-04-18T04:04:12.488Z,7.53
2018-04-18T04:06:40.606Z,7.20
2018-04-18T04:09:08.727Z,7.82
2018-04-18T04:11:36.948Z,7.22
2018-04-18T04:14:05.095Z,7.40
2018-04-18T04:16:46.767Z,7.07
2018-04-18T04:19:26.973Z,7.30
2018-04-18T04:22:06.948Z,7.80
2018-04-18T04:24:39.765Z,6.80
2018-04-18T04:27:07.882Z,7.22
2018-04-18T04:29:36.047Z,7.68
2018-04-18T04:32:04.950Z,6.93
2018-04-18T04:34:34.613Z,7.45
2018-04-18T04:37:02.761Z,7.60
2018-04-18T04:39:30.880Z,7.50
2018-04-18T04:42:00.494Z,7.20
2018-04-18T04:44:29.380Z,7.57
2018-04-18T04:46:58.284Z,7.60
2018-04-18T04:49:26.461Z,7.72
2018-04-18T04:51:54.596Z,8.30
2018-04-18T04:54:22.731Z,8.43
2018-04-18T04:56:50.852Z,8.57
2018-04-18T04:59:19.742Z,7.72
2018-04-18T05:01:47.934Z,7.93
2018-04-18T05:04:16.821Z,8.18
2018-04-18T05:06:45.716Z,7.65
2018-04-18T05:09:14.627Z,7.43
2018-04-18T05:11:42.745Z,7.78
2018-04-18T05:14:10.892Z,8.50
2018-04-18T05:16:39.010Z,8.13
2018-04-18T05:19:07.895Z,7.82
2018-04-18T05:21:36.071Z,7.78
2018-04-18T05:24:04.950Z,7.53
2018-04-18T05:26:33.157Z,8.00
2018-04-18T05:29:01.273Z,7.80
2018-04-18T05:31:29.389Z,8.07
2018-04-18T05:33:58.280Z,8.02
2018-04-18T05:36:27.219Z,8.57
2018-04-18T05:38:55.342Z,7.82
2018-04-18T05:41:24.248Z,8.10
2018-04-18T05:43:52.383Z,9.00
2018-04-18T05:46:20.530Z,7.85
2018-04-18T05:48:48.641Z,8.02
2018-04-18T05:51:17.559Z,7.50
2018-04-18T05:53:45.687Z,8.25
2018-04-18T05:56:13.830Z,7.75
2018-04-18T05:58:41.964Z,8.40
2018-04-18T06:01:10.069Z,7.93
2018-04-18T06:03:38.203Z,8.07
2018-04-18T06:06:08.003Z,8.18
2018-04-18T06:08:36.130Z,7.95
2018-04-18T06:11:04.305Z,8.20
2018-04-18T06:13:32.426Z,8.07
2018-04-18T06:16:01.349Z,8.15
2018-04-18T06:18:29.481Z,8.70
2018-04-18T06:21:02.220Z,8.68
2018-04-18T06:23:30.368Z,8.50
2018-04-18T06:25:58.530Z,8.85
2018-04-18T06:28:27.428Z,8.50
2018-04-18T06:30:55.565Z,8.50
2018-04-18T06:33:25.231Z,8.38
2018-04-18T06:35:53.384Z,8.00
2018-04-18T06:38:21.552Z,8.85
2018-04-18T06:40:49.684Z,8.60
2018-04-18T06:43:19.418Z,9.50
2018-04-18T06:45:48.388Z,8.83
2018-04-18T06:48:16.624Z,8.40
2018-04-18T06:50:44.738Z,8.98
2018-04-18T06:53:12.881Z,8.95
2018-04-18T06:55:41.793Z,9.00
2018-04-18T06:58:09.925Z,8.43
2018-04-18T07:00:38.065Z,7.97
2018-04-18T07:03:06.264Z,8.93
2018-04-18T07:05:34.392Z,8.30
2018-04-18T07:08:02.630Z,8.37
2018-04-18T07:10:30.744Z,9.25
2018-04-18T07:12:58.871Z,8.97
2018-04-18T07:15:26.995Z,9.40
2018-04-18T07:17:56.665Z,8.70
2018-04-18T07:20:24.809Z,9.40
2018-04-18T07:22:52.961Z,8.77
2018-04-18T07:25:21.103Z,9.40
2018-04-18T07:27:49.257Z,9.00
2018-04-18T07:30:17.360Z,7.60
2018-04-18T07:32:45.527Z,7.77
2018-04-18T07:35:13.647Z,7.47
2018-04-18T07:37:42.639Z,6.93
2018-04-18T07:40:10.802Z,7.40
2018-04-18T07:42:38.917Z,7.30
2018-04-18T07:45:07.066Z,7.50
2018-04-18T07:47:35.245Z,7.10
2018-04-18T07:50:03.359Z,7.10
2018-04-18T07:52:33.092Z,7.20
2018-04-18T07:55:01.250Z,7.53
2018-04-18T07:57:29.418Z,7.00
2018-04-18T07:59:57.535Z,6.77
2018-04-18T08:02:25.739Z,6.80
2018-04-18T08:04:53.840Z,6.33
2018-04-18T08:07:21.963Z,6.63
2018-04-18T08:09:50.139Z,6.40
2018-04-18T08:12:18.274Z,6.50
2018-04-18T08:14:47.170Z,6.60
2018-04-18T08:17:15.321Z,5.93
2018-04-18T08:19:43.446Z,5.70
2018-04-18T08:22:11.602Z,6.20
2018-04-18T08:24:40.491Z,5.33
2018-04-18T08:27:09.390Z,5.70
2018-04-18T08:29:37.552Z,5.20
2018-04-18T08:32:06.451Z,4.70
2018-04-18T08:34:35.341Z,4.50
2018-04-18T08:37:04.353Z,4.30
2018-04-18T08:39:32.470Z,4.70
2018-04-18T08:42:00.612Z,3.87
2018-04-18T08:44:28.762Z,3.80
2018-04-18T08:46:56.926Z,3.50
2018-04-18T08:49:25.814Z,4.00
2018-04-18T08:51:54.692Z,4.27
2018-04-18T08:54:22.894Z,4.07
2018-04-18T08:56:51.022Z,3.60
2018-04-18T08:59:19.169Z,3.87
2018-04-18T09:01:47.281Z,3.23
2018-04-18T09:04:15.481Z,3.17
2018-04-18T09:06:43.594Z,3.50
2018-04-18T09:09:11.826Z,3.20
2018-04-18T09:11:39.952Z,4.10
2018-04-18T09:14:08.079Z,2.90
2018-04-18T09:16:36.241Z,3.37
2018-04-18T09:19:05.128Z,3.10
2018-04-18T09:21:33.997Z,3.27
2018-04-18T09:24:02.111Z,3.07
2018-04-18T09:26:30.247Z,3.10
2018-04-18T09:28:58.386Z,3.30
2018-04-18T09:31:26.518Z,3.03
2018-04-18T09:33:55.394Z,2.97
2018-04-18T09:36:24.280Z,3.57
2018-04-18T09:38:52.406Z,3.53
2018-04-18T09:41:20.556Z,3.50
2018-04-18T09:43:48.678Z,3.53
2018-04-18T09:46:16.825Z,3.60
2018-04-18T09:48:44.950Z,3.87
2018-04-18T09:51:13.961Z,4.07
2018-04-18T09:53:42.827Z,4.00
2018-04-18T09:56:11.357Z,4.03
2018-04-18T09:58:39.496Z,4.40
2018-04-18T10:01:08.391Z,4.50
2018-04-18T10:03:37.276Z,4.47
2018-04-18T10:06:06.154Z,4.63
2018-04-18T10:08:34.272Z,4.30
2018-04-18T10:11:02.423Z,3.97
2018-04-18T10:13:30.578Z,4.10
2018-04-18T10:15:59.459Z,4.40
2018-04-18T10:18:27.657Z,4.10
2018-04-18T10:20:56.581Z,3.90
2018-04-18T10:23:24.672Z,4.10
2018-04-18T10:25:52.799Z,4.50
2018-04-18T10:28:20.922Z,4.30
2018-04-18T10:30:49.038Z,3.90
2018-04-18T10:33:17.912Z,3.83
2018-04-18T10:35:46.049Z,3.90
2018-04-18T10:38:14.214Z,3.83
2018-04-18T10:40:42.309Z,3.80
2018-04-18T10:43:10.417Z,4.17
2018-04-18T10:45:39.415Z,4.47
2018-04-18T10:48:07.595Z,4.50
2018-04-18T10:50:35.713Z,3.97
2018-04-18T10:53:03.861Z,4.20
2018-04-18T10:55:31.981Z,4.10
2018-04-18T10:58:00.118Z,4.60
2018-04-18T11:00:29.204Z,4.97
2018-04-18T11:02:57.308Z,5.20
2018-04-18T11:05:25.431Z,5.20
2018-04-18T11:07:53.565Z,5.80
2018-04-18T11:10:21.775Z,5.37
2018-04-18T11:12:50.692Z,5.50
2018-04-18T11:15:18.802Z,6.20
2018-04-18T11:17:46.950Z,5.63
2018-04-18T11:20:15.082Z,5.63
2018-04-18T11:22:43.201Z,5.40
2018-04-18T11:25:11.313Z,5.73
2018-04-18T11:27:40.294Z,5.47
2018-04-18T11:30:08.388Z,5.80
2018-04-18T11:32:37.289Z,5.23
2018-04-18T11:35:05.422Z,4.80
2018-04-18T11:37:33.545Z,4.70
2018-04-18T11:40:01.731Z,5.07
2018-04-18T11:42:29.830Z,4.83
2018-04-18T11:44:57.952Z,4.87
2018-04-18T11:47:26.151Z,4.90
2018-04-18T11:49:54.270Z,5.20
2018-04-18T11:52:22.416Z,4.33
2018-04-18T11:54:50.566Z,4.00
2018-04-18T11:57:18.710Z,5.13
2018-04-18T11:59:47.600Z,4.93
2018-04-18T12:02:16.533Z,4.73
2018-04-18T12:04:44.667Z,4.67
2018-04-18T12:07:13.662Z,4.70
2018-04-18T12:09:42.580Z,4.60
2018-04-18T12:12:10.707Z,4.60
2018-04-18T12:14:38.812Z,4.30
2018-04-18T12:17:06.918Z,3.83
2018-04-18T12:19:35.154Z,3.77
2018-04-18T12:22:03.330Z,4.03
2018-04-18T12:24:31.446Z,3.17
2018-04-18T12:26:59.686Z,3.90
2018-04-18T12:29:27.833Z,3.60
2018-04-18T12:31:56.717Z,3.50
2018-04-18T12:34:24.825Z,2.93
2018-04-18T12:36:52.949Z,3.13
2018-04-18T12:39:21.166Z,3.70
2018-04-18T12:41:49.309Z,3.33
2018-04-18T12:44:18.257Z,3.27
2018-04-18T12:46:46.393Z,4.00
2018-04-18T12:49:15.417Z,3.53
2018-04-18T12:51:43.550Z,2.90
2018-04-18T12:54:12.424Z,3.63
2018-04-18T12:56:40.543Z,3.53
2018-04-18T12:59:08.681Z,3.50
2018-04-18T13:01:37.593Z,3.60
2018-04-18T13:04:05.721Z,3.50
2018-04-18T13:06:33.864Z,4.20
2018-04-18T13:09:01.971Z,3.43
2018-04-18T13:11:30.209Z,3.63
2018-04-18T13:13:58.379Z,3.77
2018-04-18T13:16:26.502Z,3.70
2018-04-18T13:18:54.712Z,3.80
2018-04-18T13:21:22.851Z,3.53
2018-04-18T13:23:50.989Z,3.60
2018-04-18T13:26:19.093Z,3.57
2018-04-18T13:28:47.205Z,3.50
2018-04-18T13:31:15.361Z,3.20
2018-04-18T13:33:44.358Z,2.97
2018-04-18T13:36:13.247Z,2.97
2018-04-18T13:38:42.120Z,4.07
2018-04-18T13:41:11.004Z,4.13
2018-04-18T13:43:39.135Z,3.40
2018-04-18T13:46:08.225Z,3.77
2018-04-18T13:48:36.333Z,3.17
2018-04-18T13:51:04.480Z,3.33
2018-04-18T13:53:32.738Z,3.30
2018-04-18T13:56:01.718Z,3.40
2018-04-18T13:58:30.642Z,4.07
2018-04-18T14:00:58.738Z,4.03
2018-04-18T14:03:26.859Z,3.77
2018-04-18T14:05:55.015Z,3.53
2018-04-18T14:08:23.921Z,4.20
2018-04-18T14:10:52.038Z,4.47
2018-04-18T14:13:20.148Z,4.00
2018-04-18T14:15:49.022Z,4.53
2018-04-18T14:18:17.169Z,4.30
2018-04-18T14:20:45.397Z,4.00
2018-04-18T14:23:14.285Z,4.70
2018-04-18T14:25:43.611Z,4.77
2018-04-18T14:28:11.726Z,4.33
2018-04-18T14:30:39.942Z,4.30
2018-04-18T14:33:08.938Z,4.33
2018-04-18T14:35:37.054Z,3.90
2018-04-18T14:38:05.166Z,4.03
2018-04-18T14:40:33.325Z,3.57
2018-04-18T14:43:06.018Z,4.33
2018-04-18T14:45:34.331Z,4.23
2018-04-18T14:48:02.565Z,4.10
2018-04-18T14:50:30.704Z,4.20
2018-04-18T14:52:58.870Z,4.53
2018-04-18T14:55:26.971Z,4.63
2018-04-18T14:57:55.082Z,4.50
2018-04-18T15:00:23.234Z,4.33
2018-04-18T15:02:52.106Z,4.60
2018-04-18T15:05:20.325Z,4.67
2018-04-18T15:07:48.412Z,4.70
2018-04-18T15:10:16.494Z,5.30
2018-04-18T15:12:44.649Z,4.83
2018-04-18T15:15:12.752Z,4.27
2018-04-18T15:17:40.861Z,4.87
2018-04-18T15:20:09.764Z,5.17
2018-04-18T15:22:38.692Z,5.00
2018-04-18T15:25:06.834Z,5.20
2018-04-18T15:27:35.824Z,4.90
2018-04-18T15:30:03.966Z,4.80
2018-04-18T15:32:32.080Z,5.13
2018-04-18T15:35:00.243Z,5.27
2018-04-18T15:37:29.151Z,4.70
2018-04-18T15:39:57.309Z,5.10
2018-04-18T15:42:26.201Z,5.43
2018-04-18T15:44:55.077Z,5.73
2018-04-18T15:47:24.000Z,5.13
2018-04-18T15:49:52.142Z,4.97
2018-04-18T15:52:21.041Z,4.97
2018-04-18T15:54:49.991Z,4.20
2018-04-18T15:57:18.146Z,4.27
2018-04-18T15:59:46.297Z,5.03
2018-04-18T16:02:14.489Z,4.80
2018-04-18T16:04:43.281Z,5.30
2018-04-18T16:07:11.383Z,5.07
2018-04-18T16:09:39.600Z,4.90
2018-04-18T16:12:08.520Z,4.50
2018-04-18T16:14:36.693Z,4.97
2018-04-18T16:17:04.833Z,5.47
2018-04-18T16:19:33.720Z,5.83
2018-04-18T16:22:02.630Z,5.33
2018-04-18T16:24:30.735Z,5.40
2018-04-18T16:27:15.254Z,5.60
2018-04-18T16:29:49.375Z,5.70
2018-04-18T16:32:17.543Z,6.10
2018-04-18T16:34:46.412Z,6.10
2018-04-18T16:37:15.292Z,5.47
2018-04-18T16:39:43.441Z,5.20
2018-04-18T16:42:11.595Z,5.50
2018-04-18T16:44:39.704Z,5.30
2018-04-18T16:47:07.885Z,5.93
2018-04-18T16:49:36.017Z,5.77
2018-04-18T16:52:04.129Z,5.63
2018-04-18T16:54:33.021Z,7.50
2018-04-18T16:57:01.265Z,6.20
2018-04-18T16:59:29.367Z,6.77
2018-04-18T17:01:58.419Z,7.03
2018-04-18T17:04:26.523Z,6.83
2018-04-18T17:06:54.728Z,8.33
2018-04-18T17:09:22.817Z,7.77
2018-04-18T17:11:51.740Z,7.90
2018-04-18T17:14:19.864Z,8.40
2018-04-18T17:16:48.148Z,9.03
2018-04-18T17:19:17.035Z,8.30
2018-04-18T17:21:45.908Z,8.07
2018-04-18T17:24:14.052Z,8.10
2018-04-18T17:26:42.183Z,8.30
2018-04-18T17:29:11.050Z,7.83
2018-04-18T17:31:39.988Z,8.23
2018-04-18T17:34:08.110Z,8.07
2018-04-18T17:36:36.346Z,6.83
2018-04-18T17:39:05.228Z,7.10
2018-04-18T17:41:33.376Z,6.27
2018-04-18T17:44:02.266Z,6.23
2018-04-18T17:46:31.144Z,6.13
2018-04-18T17:49:00.235Z,6.10
2018-04-18T17:51:28.451Z,6.37
2018-04-18T17:53:56.627Z,5.93
2018-04-18T17:56:24.770Z,5.97
2018-04-18T17:58:53.641Z,5.40
2018-04-18T18:01:21.866Z,5.23
2018-04-18T18:03:50.041Z,5.43
2018-04-18T18:06:18.177Z,5.63
2018-04-18T18:08:46.312Z,4.77
2018-04-18T18:11:14.542Z,5.50
2018-04-18T18:13:42.739Z,5.77
2018-04-18T18:16:10.825Z,5.50
2018-04-18T18:18:38.989Z,4.80
2018-04-18T18:21:07.107Z,5.00
2018-04-18T18:23:35.227Z,4.40
2018-04-18T18:26:03.337Z,4.73
2018-04-18T18:28:31.476Z,5.17
2018-04-18T18:30:59.647Z,5.43
2018-04-18T18:33:27.785Z,5.70
2018-04-18T18:35:56.658Z,5.07
2018-04-18T18:38:24.791Z,5.50
2018-04-18T18:40:52.907Z,4.37
2018-04-18T18:43:21.141Z,4.60
2018-04-18T18:45:50.130Z,5.40
2018-04-18T18:48:18.227Z,4.40
2018-04-18T18:50:46.371Z,5.23
2018-04-18T18:53:14.487Z,5.73
2018-04-18T18:55:42.701Z,5.27
2018-04-18T18:58:10.809Z,5.70
2018-04-18T19:00:39.034Z,6.03
2018-04-18T19:03:07.250Z,5.50
2018-04-18T19:05:35.417Z,5.60
2018-04-18T19:08:03.590Z,5.70
2018-04-18T19:10:31.731Z,5.97
2018-04-18T19:13:00.620Z,6.00
2018-04-18T19:15:29.556Z,6.33
2018-04-18T19:17:57.681Z,5.93
2018-04-18T19:20:26.571Z,5.50
2018-04-18T19:22:55.486Z,5.60
2018-04-18T19:25:23.624Z,5.97
2018-04-18T19:27:51.742Z,5.90
2018-04-18T19:30:19.993Z,5.90
2018-04-18T19:32:49.107Z,5.67
2018-04-18T19:35:17.238Z,5.60
2018-04-18T19:37:45.346Z,5.10
2018-04-18T19:40:13.541Z,5.67
2018-04-18T19:42:41.790Z,5.83
2018-04-18T19:45:09.957Z,5.57
2018-04-18T19:47:38.853Z,5.40
2018-04-18T19:50:07.732Z,5.10
2018-04-18T19:52:36.665Z,5.30
2018-04-18T19:55:04.939Z,5.53
2018-04-18T19:57:33.049Z,5.50
2018-04-18T20:00:01.178Z,5.63
2018-04-18T20:02:30.045Z,5.43
2018-04-18T20:04:58.928Z,5.20
2018-04-18T20:07:27.826Z,5.30
2018-04-18T20:09:56.705Z,5.47
2018-04-18T20:12:25.600Z,4.60
2018-04-18T20:14:54.487Z,5.03
2018-04-18T20:17:23.397Z,5.17
2018-04-18T20:19:51.563Z,4.90
2018-04-18T20:22:20.458Z,4.63
2018-04-18T20:24:48.615Z,5.63
2018-04-18T20:27:17.489Z,4.97
2018-04-18T20:29:45.616Z,5.30
2018-04-18T20:32:13.815Z,5.23
2018-04-18T20:34:42.477Z,4.37
2018-04-18T20:37:10.585Z,4.63
2018-04-18T20:39:38.708Z,4.77
2018-04-18T20:42:06.832Z,4.30
2018-04-18T20:44:34.977Z,4.60
2018-04-18T20:47:03.128Z,4.87
2018-04-18T20:49:31.245Z,4.80
2018-04-18T20:51:59.352Z,4.63
2018-04-18T20:54:28.238Z,4.10
2018-04-18T20:56:56.406Z,4.83
2018-04-18T20:59:24.621Z,5.27
2018-04-18T21:01:52.722Z,4.57
2018-04-18T21:04:20.946Z,4.60
2018-04-18T21:06:53.206Z,4.63
2018-04-18T21:09:22.112Z,4.83
2018-04-18T21:11:50.990Z,4.97
2018-04-18T21:14:19.897Z,5.17
2018-04-18T21:16:48.022Z,5.70
2018-04-18T21:19:16.138Z,4.97
2018-04-18T21:21:45.137Z,5.07
2018-04-18T21:24:14.069Z,5.60
2018-04-18T21:26:42.245Z,5.57
2018-04-18T21:29:10.326Z,5.00
2018-04-18T21:31:38.430Z,5.50
2018-04-18T21:34:07.360Z,5.13
2018-04-18T21:36:35.502Z,4.97
2018-04-18T21:39:04.377Z,4.87
2018-04-18T21:41:32.516Z,5.10
2018-04-18T21:44:00.622Z,5.17
2018-04-18T21:46:28.750Z,5.17
2018-04-18T21:49:03.028Z,4.90
2018-04-18T21:51:31.910Z,4.90
2018-04-18T21:54:00.798Z,4.60
2018-04-18T21:56:28.925Z,5.30
2018-04-18T21:58:57.035Z,4.77
2018-04-18T22:01:25.142Z,5.37
2018-04-18T22:03:53.290Z,5.07
2018-04-18T22:06:22.173Z,5.07
2018-04-18T22:08:50.298Z,5.47
2018-04-18T22:11:18.437Z,5.60
2018-04-18T22:13:47.315Z,5.20
2018-04-18T22:16:15.466Z,5.40
2018-04-18T22:18:43.587Z,5.30
2018-04-18T22:21:11.705Z,5.20
2018-04-18T22:23:41.367Z,5.50
2018-04-18T22:26:10.254Z,5.00
2018-04-18T22:28:39.130Z,5.07
2018-04-18T22:31:08.000Z,5.30
2018-04-18T22:33:36.167Z,5.07
2018-04-18T22:36:04.293Z,4.80
2018-04-18T22:38:32.401Z,5.23
2018-04-18T22:41:00.526Z,4.63
2018-04-18T22:43:28.711Z,5.50
2018-04-18T22:45:56.875Z,5.27
2018-04-18T22:48:25.045Z,5.13
2018-04-18T22:50:53.170Z,5.40
2018-04-18T22:53:21.410Z,5.10
2018-04-18T22:55:49.524Z,4.97
2018-04-18T22:58:17.652Z,5.47
2018-04-18T23:00:45.776Z,5.37
2018-04-18T23:03:13.890Z,5.10
2018-04-18T23:05:42.013Z,5.00
2018-04-18T23:08:10.131Z,5.63
2018-04-18T23:10:39.000Z,5.23
2018-04-18T23:13:07.938Z,5.27
2018-04-18T23:15:36.081Z,5.20
2018-04-18T23:18:04.956Z,5.20
2018-04-18T23:20:33.830Z,5.10
2018-04-18T23:23:01.946Z,4.70
2018-04-18T23:25:30.077Z,4.80
2018-04-18T23:27:58.282Z,4.93
2018-04-18T23:30:27.168Z,5.43
2018-04-18T23:32:56.039Z,5.00
2018-04-18T23:35:24.980Z,5.97
2018-04-18T23:37:53.114Z,5.20
2018-04-18T23:40:21.994Z,5.50
2018-04-18T23:42:50.113Z,5.30
2018-04-18T23:45:18.266Z,5.93
2018-04-18T23:47:46.470Z,5.67
2018-04-18T23:50:14.610Z,5.40
2018-04-18T23:52:43.490Z,5.90
2018-04-18T23:55:12.398Z,5.77
2018-04-18T23:57:40.520Z,5.37
